Flight Track Log - Related Links

Times and Time Zones

All times are in EDT time to prevent confusion due to time zone crossing. See the ASQ5168 flight status page for this flight to view local times or setup timezone preferences in your user account.


Time Position Orientation Groundspeed Altitude Reporting Facility
EDT Latitude Longitude Course Direction KTS MPH feet Rate Location/Type
Fri 06:16:28 AM 44.3967 -73.1403 196° South 190 219 3,900  Level Boston Center
Fri 06:17:28 AM 44.3361 -73.1658 197° South 213 245 5,700 2,200 Climbing Boston Center
Fri 06:18:28 AM 44.2608 -73.1967 196° South 257 296 8,300 2,700 Climbing Boston Center
Fri 06:19:28 AM 44.1900 -73.2275 197° South 272 313 11,100 2,250 Climbing Boston Center
Fri 06:20:28 AM 44.1083 -73.2611 196° South 291 335 12,800 1,900 Climbing Boston Center
Fri 06:21:00 AM 44.0022 -73.3258 196° South  Level FlightAware Approximate
Fri 06:21:28 AM 44.0206 -73.2947 195° South 321 369 14,900  Level Boston Center
Fri 06:22:28 AM 43.9369 -73.3308 197° South 340 391 17,000 2,150 Climbing Boston Center
Fri 06:23:28 AM 43.8450 -73.3669 196° South 345 397 19,200 2,000 Climbing Boston Center
Fri 06:24:28 AM 43.7531 -73.4058 197° South 345 397 21,000 1,400 Climbing Boston Center
Fri 06:25:28 AM 43.6444 -73.4442 194° South 354 407 22,000 450 Climbing Boston Center
Fri 06:26:28 AM 43.5333 -73.4911 197° South 383 441 21,900 -550 Descending Boston Center
Fri 06:27:28 AM 43.4206 -73.5378 197° South 413 475 20,900 -950 Descending Boston Center
Fri 06:28:28 AM 43.3075 -73.5786 195° South 423 487 20,000 -450 Descending Boston Center
Fri 06:29:28 AM 43.2008 -73.6192 195° South 413 475 20,000  Level Boston Center
Fri 06:30:28 AM 43.0919 -73.6683 198° South 408 470 20,000  Level Boston Center
Fri 06:31:28 AM 42.9853 -73.7089 196° South 408 470 20,000  Level Boston Center
Fri 06:32:28 AM 42.8764 -73.7547 197° South 402 463 20,000  Level Boston Center
Fri 06:33:28 AM 42.7758 -73.7922 195° South 401 461 20,000  Level Boston Center
Fri 06:34:28 AM 42.6572 -73.7867 178° South 401 461 20,000  Level Boston Center
Fri 06:35:28 AM 42.5447 -73.7644 172° South 409 471 20,000  Level Boston Center
Fri 06:36:28 AM 42.4325 -73.7425 172° South 409 471 20,000 -350 Level Boston Center
Fri 06:37:28 AM 42.3139 -73.7175 171° South 415 478 19,300 -500 Descending Boston Center
Fri 06:38:28 AM 42.1975 -73.6928 171° South 426 490 19,000 -150 Descending Boston Center
Fri 06:39:28 AM 42.1017 -73.7019 184° South 426 490 19,000  Level Boston Center
Fri 06:40:28 AM 41.9700 -73.7161 185° South 421 484 19,000  Level Boston Center
Fri 06:41:28 AM 41.8406 -73.7358 186° South 431 496 19,000 -1,150 Level Boston Center
Fri 06:42:28 AM 41.7342 -73.7475 185° South 431 496 16,700 -2,750 Descending Boston Center
Fri 06:43:28 AM 41.6153 -73.7644 186° South 408 470 13,500 -3,158 Descending Boston Center
Fri 06:44:03 AM 41.5500 -73.7667 181° South 377 434 11,700 -2,021 Descending New York TRACON
Fri 06:45:03 AM 41.4500 -73.7833 187° South 331 381 10,300 -1,105 Descending New York TRACON
Fri 06:45:57 AM 41.3833 -73.8000 191° South 290 334 9,600 -1,000 Descending New York TRACON
Fri 06:46:51 AM 41.3167 -73.7667 159° South 304 350 8,500 -842 Descending New York TRACON
Fri 06:47:51 AM 41.2500 -73.7167 151° Southeast 299 344 8,000 -579 Descending New York TRACON
Fri 06:48:45 AM 41.1833 -73.6500 143° Southeast 302 348 7,400 -1,252 Descending New York TRACON
Fri 06:49:46 AM 41.1000 -73.6333 171° South 284 327 5,600 -1,606 Descending New York TRACON
Fri 06:50:52 AM 41.0333 -73.6667 201° Southwest 257 296 4,000 -800 Descending New York TRACON
Fri 06:51:46 AM 40.9833 -73.7000 207° Southwest 246 283 4,000 -333 Level New York TRACON
Fri 06:52:40 AM 40.9333 -73.7500 217° Southwest 219 252 3,400 -944 Descending New York TRACON
Fri 06:53:34 AM 40.8833 -73.7833 207° Southwest 208 239 2,300 -1,053 Descending New York TRACON
Fri 06:54:34 AM 40.8500 -73.8167 217° Southwest 162 186 1,400 -800 Descending New York TRACON
Fri 06:55:34 AM 40.8167 -73.8500 217° Southwest 134 154 700 -632 Descending New York TRACON
Fri 06:56:28 AM 40.7833 -73.8667 201° Southwest 134 154 200 -556 Descending New York TRACON
Fri 06:58:00 AM 40.7772 -73.8726 180° South  Level Estimated

Login

Don't have an account? Register now (free) for customized features, flight alerts, and more!